createdAt,value
2023-02-09T00:01:17.637Z,6.47
2023-02-09T00:03:45.985Z,8.33
2023-02-09T00:06:17.189Z,8.50
2023-02-09T00:08:45.729Z,7.23
2023-02-09T00:11:20.620Z,8.03
2023-02-09T00:13:47.563Z,6.80
2023-02-09T00:16:15.559Z,7.13
2023-02-09T00:18:43.464Z,6.90
2023-02-09T00:21:12.494Z,6.73
2023-02-09T00:23:41.837Z,8.40
2023-02-09T00:26:12.458Z,7.70
2023-02-09T00:28:41.692Z,7.83
2023-02-09T00:31:11.312Z,7.93
2023-02-09T00:33:39.751Z,7.25
2023-02-09T00:36:09.395Z,6.77
2023-02-09T00:38:37.385Z,7.23
2023-02-09T00:41:06.128Z,7.40
2023-02-09T00:43:34.934Z,8.10
2023-02-09T00:46:04.748Z,9.13
2023-02-09T00:48:32.803Z,7.67
2023-02-09T00:51:00.984Z,9.97
2023-02-09T00:53:29.036Z,8.13
2023-02-09T00:55:56.943Z,11.73
2023-02-09T00:58:25.041Z,9.33
2023-02-09T01:00:53.067Z,8.13
2023-02-09T01:03:22.302Z,8.30
2023-02-09T01:05:50.324Z,8.60
2023-02-09T01:08:18.218Z,8.10
2023-02-09T01:10:46.479Z,7.45
2023-02-09T01:13:14.614Z,7.68
2023-02-09T01:15:42.526Z,9.03
2023-02-09T01:18:10.395Z,9.27
2023-02-09T01:20:41.998Z,9.75
2023-02-09T01:23:10.385Z,7.53
2023-02-09T01:25:38.298Z,8.70
2023-02-09T01:28:06.315Z,9.02
2023-02-09T01:30:35.432Z,8.00
2023-02-09T01:33:03.311Z,8.60
2023-02-09T01:35:32.392Z,7.47
2023-02-09T01:38:01.766Z,8.70
2023-02-09T01:40:29.670Z,7.80
2023-02-09T01:42:57.547Z,8.93
2023-02-09T01:45:30.365Z,8.70
2023-02-09T01:48:01.422Z,8.30
2023-02-09T01:50:34.132Z,9.20
2023-02-09T01:53:04.325Z,7.78
2023-02-09T01:55:36.084Z,8.00
2023-02-09T01:58:08.388Z,8.55
2023-02-09T02:00:36.349Z,9.30
2023-02-09T02:03:08.410Z,9.10
2023-02-09T02:05:40.138Z,7.70
2023-02-09T02:08:13.948Z,7.73
2023-02-09T02:10:42.124Z,8.02
2023-02-09T02:13:10.094Z,8.55
2023-02-09T02:15:44.755Z,8.13
2023-02-09T02:18:25.743Z,7.97
2023-02-09T02:21:21.546Z,9.18
2023-02-09T02:24:15.205Z,7.88
2023-02-09T02:26:54.510Z,7.63
2023-02-09T02:30:03.065Z,7.05
2023-02-09T02:33:01.013Z,7.78
2023-02-09T02:35:37.493Z,7.75
2023-02-09T02:38:17.557Z,9.93
2023-02-09T02:40:56.019Z,9.18
2023-02-09T02:43:37.512Z,8.82
2023-02-09T02:46:09.844Z,8.20
2023-02-09T02:48:43.182Z,9.73
2023-02-09T02:51:16.472Z,8.50
2023-02-09T02:53:50.530Z,8.23
2023-02-09T02:56:22.150Z,7.75
2023-02-09T02:58:53.000Z,10.00
2023-02-09T03:01:24.737Z,8.77
2023-02-09T03:03:54.913Z,9.48
2023-02-09T03:06:22.778Z,8.97
2023-02-09T03:08:53.205Z,10.65
2023-02-09T03:11:22.702Z,8.95
2023-02-09T03:14:08.717Z,8.63
2023-02-09T03:16:45.157Z,9.63
2023-02-09T03:19:26.625Z,9.00
2023-02-09T03:21:59.839Z,8.57
2023-02-09T03:24:41.137Z,8.60
2023-02-09T03:27:16.183Z,8.60
2023-02-09T03:29:46.814Z,8.13
2023-02-09T03:32:15.786Z,8.88
2023-02-09T03:34:46.455Z,7.80
2023-02-09T03:37:14.636Z,8.37
2023-02-09T03:39:42.782Z,10.13
2023-02-09T03:42:10.742Z,7.70
2023-02-09T03:44:38.860Z,8.63
2023-02-09T03:47:08.850Z,8.35
2023-02-09T03:49:40.156Z,10.32
2023-02-09T03:52:11.346Z,9.23
2023-02-09T03:54:39.337Z,10.02
2023-02-09T03:57:08.376Z,10.07
2023-02-09T03:59:37.517Z,7.88
2023-02-09T04:02:07.609Z,10.25
2023-02-09T04:04:35.978Z,10.20
2023-02-09T04:07:04.403Z,10.32
2023-02-09T04:09:33.894Z,9.73
2023-02-09T04:12:01.764Z,8.32
2023-02-09T04:14:29.732Z,7.18
2023-02-09T04:16:57.583Z,10.20
2023-02-09T04:19:25.722Z,9.90
2023-02-09T04:21:54.079Z,8.85
2023-02-09T04:24:22.460Z,7.85
2023-02-09T04:26:51.689Z,8.82
2023-02-09T04:29:19.520Z,9.90
2023-02-09T04:31:47.517Z,10.02
2023-02-09T04:34:15.397Z,8.90
2023-02-09T04:36:43.250Z,9.70
2023-02-09T04:39:11.130Z,8.57
2023-02-09T04:41:39.016Z,8.60
2023-02-09T04:44:08.220Z,8.75
2023-02-09T04:46:36.236Z,9.80
2023-02-09T04:49:04.168Z,7.57
2023-02-09T04:51:31.982Z,9.13
2023-02-09T04:54:00.098Z,8.90
2023-02-09T04:56:27.934Z,10.63
2023-02-09T04:59:13.479Z,9.88
2023-02-09T05:01:42.688Z,9.43
2023-02-09T05:04:10.535Z,11.13
2023-02-09T05:06:38.405Z,9.65
2023-02-09T05:09:06.295Z,10.75
2023-02-09T05:11:34.114Z,10.25
2023-02-09T05:14:01.988Z,10.48
2023-02-09T05:16:29.870Z,9.88
2023-02-09T05:18:59.139Z,12.25
2023-02-09T05:21:27.046Z,10.25
2023-02-09T05:23:54.941Z,9.40
2023-02-09T05:26:22.798Z,9.90
2023-02-09T05:28:50.652Z,10.23
2023-02-09T05:31:19.051Z,8.93
2023-02-09T05:33:47.079Z,9.52
2023-02-09T05:36:16.268Z,9.45
2023-02-09T05:38:44.116Z,9.00
2023-02-09T05:41:35.123Z,8.98
2023-02-09T05:44:02.997Z,7.95
2023-02-09T05:46:30.835Z,9.40
2023-02-09T05:48:58.799Z,8.57
2023-02-09T05:51:28.014Z,9.88
2023-02-09T05:53:56.294Z,9.82
2023-02-09T05:56:24.135Z,9.02
2023-02-09T05:58:51.959Z,8.68
2023-02-09T06:01:19.877Z,7.47
2023-02-09T06:03:47.733Z,9.70
2023-02-09T06:06:15.771Z,8.25
2023-02-09T06:08:45.023Z,9.50
2023-02-09T06:11:12.944Z,9.25
2023-02-09T06:13:40.770Z,8.45
2023-02-09T06:16:09.168Z,8.13
2023-02-09T06:18:38.145Z,10.35
2023-02-09T06:21:07.612Z,9.40
2023-02-09T06:23:35.541Z,8.27
2023-02-09T06:26:08.533Z,8.55
2023-02-09T06:28:37.029Z,9.25
2023-02-09T06:31:05.440Z,8.60
2023-02-09T06:33:33.803Z,9.00
2023-02-09T06:36:01.991Z,10.20
2023-02-09T06:38:31.837Z,9.10
2023-02-09T06:40:59.715Z,7.97
2023-02-09T06:43:29.230Z,8.63
2023-02-09T06:45:57.142Z,8.50
2023-02-09T06:48:24.996Z,7.43
2023-02-09T06:50:53.069Z,9.48
2023-02-09T06:53:21.184Z,10.45
2023-02-09T06:55:49.023Z,8.43
2023-02-09T06:58:16.855Z,9.30
2023-02-09T07:00:46.480Z,8.70
2023-02-09T07:03:14.484Z,8.23
2023-02-09T07:05:42.339Z,9.27
2023-02-09T07:08:10.782Z,10.65
2023-02-09T07:10:41.082Z,9.85
2023-02-09T07:13:08.898Z,8.85
2023-02-09T07:15:36.792Z,8.18
2023-02-09T07:18:06.060Z,9.35
2023-02-09T07:20:34.008Z,9.18
2023-02-09T07:23:02.280Z,10.43
2023-02-09T07:25:30.184Z,8.63
2023-02-09T07:27:58.062Z,11.33
2023-02-09T07:30:25.932Z,9.80
2023-02-09T07:32:53.763Z,10.90
2023-02-09T07:35:23.224Z,8.80
2023-02-09T07:37:51.470Z,8.93
2023-02-09T07:40:20.364Z,8.83
2023-02-09T07:42:48.199Z,9.83
2023-02-09T07:45:16.066Z,9.43
2023-02-09T07:47:43.942Z,11.33
2023-02-09T07:50:12.084Z,9.43
2023-02-09T07:52:41.315Z,10.47
2023-02-09T07:55:09.417Z,10.30
2023-02-09T07:57:37.242Z,9.30
2023-02-09T08:00:06.603Z,9.77
2023-02-09T08:02:36.874Z,9.47
2023-02-09T08:05:08.787Z,9.70
2023-02-09T08:07:36.771Z,10.20
2023-02-09T08:10:06.518Z,11.43
2023-02-09T08:12:52.103Z,11.47
2023-02-09T08:15:22.105Z,10.13
2023-02-09T08:17:52.168Z,9.67
2023-02-09T08:20:23.698Z,11.47
2023-02-09T08:22:54.974Z,11.70
2023-02-09T08:25:25.890Z,10.23
2023-02-09T08:27:54.392Z,10.80
2023-02-09T08:30:23.481Z,9.53
2023-02-09T08:32:51.557Z,9.03
2023-02-09T08:35:19.593Z,10.10
2023-02-09T08:37:48.020Z,10.90
2023-02-09T08:40:16.095Z,9.90
2023-02-09T08:42:45.335Z,10.70
2023-02-09T08:45:16.127Z,10.70
2023-02-09T08:47:45.050Z,9.73
2023-02-09T08:50:14.084Z,7.80
2023-02-09T08:52:42.574Z,9.33
2023-02-09T08:55:10.701Z,8.90
2023-02-09T08:57:44.295Z,9.93
2023-02-09T09:00:15.382Z,9.57
2023-02-09T09:02:43.299Z,9.13
2023-02-09T09:05:11.194Z,9.53
2023-02-09T09:07:40.805Z,9.10
2023-02-09T09:10:09.778Z,9.80
2023-02-09T09:12:37.969Z,8.10
2023-02-09T09:15:06.793Z,8.60
2023-02-09T09:17:36.052Z,6.73
2023-02-09T09:20:04.052Z,8.00
2023-02-09T09:22:31.898Z,7.10
2023-02-09T09:24:59.755Z,9.83
2023-02-09T09:27:28.348Z,8.10
2023-02-09T09:29:56.451Z,8.90
2023-02-09T09:32:24.973Z,9.07
2023-02-09T09:34:55.580Z,8.00
2023-02-09T09:37:24.196Z,8.27
2023-02-09T09:39:52.328Z,7.83
2023-02-09T09:42:25.662Z,8.23
2023-02-09T09:44:54.521Z,7.10
2023-02-09T09:47:27.232Z,7.20
2023-02-09T09:49:56.470Z,6.60
2023-02-09T09:52:31.048Z,7.87
2023-02-09T09:55:01.481Z,8.30
2023-02-09T09:57:31.108Z,7.90
2023-02-09T09:59:59.110Z,8.23
2023-02-09T10:02:30.740Z,7.50
2023-02-09T10:05:06.227Z,7.97
2023-02-09T10:07:35.548Z,7.87
2023-02-09T10:10:05.685Z,7.73
2023-02-09T10:12:38.229Z,6.93
2023-02-09T10:15:27.787Z,8.33
2023-02-09T10:17:55.942Z,7.40
2023-02-09T10:20:45.390Z,7.50
2023-02-09T10:23:18.698Z,8.57
2023-02-09T10:25:58.404Z,7.80
2023-02-09T10:28:28.395Z,6.97
2023-02-09T10:30:59.311Z,7.00
2023-02-09T10:33:29.483Z,7.43
2023-02-09T10:36:05.632Z,7.27
2023-02-09T10:38:34.505Z,6.90
2023-02-09T10:41:02.726Z,6.97
2023-02-09T10:43:33.198Z,7.67
2023-02-09T10:46:03.892Z,8.27
2023-02-09T10:48:41.404Z,7.57
2023-02-09T10:51:16.974Z,7.50
2023-02-09T10:54:01.310Z,7.53
2023-02-09T10:56:35.273Z,8.40
2023-02-09T10:59:14.268Z,8.30
2023-02-09T11:01:44.980Z,7.40
2023-02-09T11:04:21.679Z,7.60
2023-02-09T11:06:55.451Z,8.10
2023-02-09T11:09:28.242Z,8.50
2023-02-09T11:11:58.267Z,7.53
2023-02-09T11:14:26.350Z,8.53
2023-02-09T11:17:03.116Z,9.20
2023-02-09T11:19:57.019Z,8.53
2023-02-09T11:22:50.868Z,6.87
2023-02-09T11:25:24.883Z,8.20
2023-02-09T11:28:15.259Z,8.50
2023-02-09T11:31:04.488Z,7.97
2023-02-09T11:33:42.173Z,8.00
2023-02-09T11:36:21.380Z,8.87
2023-02-09T11:38:55.101Z,8.80
2023-02-09T11:41:46.959Z,8.37
2023-02-09T11:44:24.129Z,8.47
2023-02-09T11:46:55.096Z,8.40
2023-02-09T11:49:26.811Z,8.00
2023-02-09T11:51:56.576Z,9.93
2023-02-09T11:54:31.212Z,7.63
2023-02-09T11:57:11.525Z,9.20
2023-02-09T11:59:44.316Z,8.53
2023-02-09T12:02:24.061Z,9.13
2023-02-09T12:04:58.000Z,9.70
2023-02-09T12:07:33.211Z,10.13
2023-02-09T12:10:15.049Z,10.70
2023-02-09T12:12:49.721Z,10.00
2023-02-09T12:15:20.441Z,9.97
2023-02-09T12:17:52.452Z,8.80
2023-02-09T12:20:27.554Z,10.00
2023-02-09T12:23:07.866Z,9.10
2023-02-09T12:26:01.553Z,9.57
2023-02-09T12:28:41.417Z,10.20
2023-02-09T12:31:24.991Z,10.87
2023-02-09T12:34:14.918Z,10.20
2023-02-09T12:37:28.000Z,9.30
2023-02-09T12:40:24.063Z,11.30
2023-02-09T12:43:14.021Z,8.97
2023-02-09T12:45:43.405Z,9.07
2023-02-09T12:48:19.222Z,9.33
2023-02-09T12:50:53.401Z,8.37
2023-02-09T12:53:46.815Z,9.87
2023-02-09T12:56:29.084Z,8.80
2023-02-09T12:59:18.185Z,10.50
2023-02-09T13:02:23.850Z,9.90
2023-02-09T13:05:05.036Z,9.67
2023-02-09T13:07:49.048Z,11.40
2023-02-09T13:10:24.467Z,9.60
2023-02-09T13:12:57.971Z,9.63
2023-02-09T13:15:34.325Z,11.60
2023-02-09T13:18:09.934Z,11.13
2023-02-09T13:21:11.203Z,9.10
2023-02-09T13:23:49.948Z,10.90
2023-02-09T13:26:22.310Z,10.97
2023-02-09T13:28:50.542Z,11.73
2023-02-09T13:31:27.462Z,10.17
2023-02-09T13:34:02.615Z,11.27
2023-02-09T13:36:39.719Z,11.73
2023-02-09T13:39:24.121Z,10.80
2023-02-09T13:41:53.668Z,9.87
2023-02-09T13:44:23.586Z,10.60
2023-02-09T13:46:58.128Z,11.83
2023-02-09T13:49:27.126Z,11.17
2023-02-09T13:52:12.318Z,10.37
2023-02-09T13:54:40.570Z,12.20
2023-02-09T13:57:20.662Z,10.50
2023-02-09T13:59:50.061Z,10.47
2023-02-09T14:02:22.398Z,10.10
2023-02-09T14:04:53.819Z,11.13
2023-02-09T14:07:26.553Z,10.50
2023-02-09T14:09:58.158Z,10.87
2023-02-09T14:12:51.387Z,10.83
2023-02-09T14:15:39.833Z,10.93
2023-02-09T14:18:24.900Z,12.13
2023-02-09T14:21:16.340Z,10.53
2023-02-09T14:23:46.443Z,10.53
2023-02-09T14:26:25.186Z,10.10
2023-02-09T14:29:04.519Z,10.60
2023-02-09T14:31:35.598Z,9.87
2023-02-09T14:34:04.863Z,11.17
2023-02-09T14:36:34.255Z,10.47
2023-02-09T14:39:12.693Z,11.20
2023-02-09T14:41:40.904Z,11.43
2023-02-09T14:44:21.301Z,11.00
2023-02-09T14:46:51.465Z,9.93
2023-02-09T14:49:21.298Z,10.63
2023-02-09T14:51:50.699Z,9.40
2023-02-09T14:54:24.859Z,10.60
2023-02-09T14:56:54.248Z,8.93
2023-02-09T14:59:23.129Z,9.70
2023-02-09T15:01:53.443Z,9.97
2023-02-09T15:04:22.662Z,11.40
2023-02-09T15:06:57.608Z,10.97
2023-02-09T15:09:30.896Z,9.00
2023-02-09T15:12:07.565Z,9.93
2023-02-09T15:14:43.818Z,9.50
2023-02-09T15:17:16.898Z,8.50
2023-02-09T15:19:46.954Z,9.73
2023-02-09T15:22:16.485Z,9.60
2023-02-09T15:24:45.033Z,8.03
2023-02-09T15:27:27.868Z,9.10
2023-02-09T15:29:59.739Z,10.40
2023-02-09T15:32:29.020Z,10.03
2023-02-09T15:34:58.239Z,12.17
2023-02-09T15:37:29.062Z,11.03
2023-02-09T15:39:59.795Z,10.27
2023-02-09T15:42:45.234Z,11.43
2023-02-09T15:45:34.841Z,11.47
2023-02-09T15:48:02.879Z,11.93
2023-02-09T15:50:34.276Z,11.30
2023-02-09T15:53:03.599Z,11.37
2023-02-09T15:55:32.175Z,10.50
2023-02-09T15:58:00.481Z,11.47
2023-02-09T16:00:30.487Z,11.60
2023-02-09T16:03:00.458Z,11.23
2023-02-09T16:05:29.998Z,10.70
2023-02-09T16:08:00.498Z,9.37
2023-02-09T16:10:30.588Z,10.10
2023-02-09T16:12:58.514Z,11.40
2023-02-09T16:15:27.674Z,9.60
2023-02-09T16:17:55.506Z,10.80
2023-02-09T16:20:25.892Z,8.67
2023-02-09T16:22:55.544Z,8.97
2023-02-09T16:25:26.588Z,10.57
2023-02-09T16:27:56.101Z,11.73
2023-02-09T16:30:26.797Z,11.20
2023-02-09T16:32:55.072Z,9.07
2023-02-09T16:35:25.370Z,8.13
2023-02-09T16:37:56.049Z,10.43
2023-02-09T16:40:29.318Z,10.23
2023-02-09T16:42:58.792Z,9.47
2023-02-09T16:45:28.533Z,10.40
2023-02-09T16:47:59.383Z,8.73
2023-02-09T16:50:33.014Z,8.60
2023-02-09T16:53:03.187Z,10.33
2023-02-09T16:55:34.054Z,10.07
2023-02-09T16:58:04.193Z,10.30
2023-02-09T17:00:34.825Z,10.97
2023-02-09T17:03:13.965Z,8.73
2023-02-09T17:05:43.583Z,9.43
2023-02-09T17:08:17.215Z,9.47
2023-02-09T17:10:47.718Z,8.57
2023-02-09T17:13:17.388Z,9.33
2023-02-09T17:15:47.448Z,10.30
2023-02-09T17:18:18.085Z,8.93
2023-02-09T17:20:48.714Z,10.07
2023-02-09T17:23:18.314Z,9.47
2023-02-09T17:25:48.281Z,12.00
2023-02-09T17:28:16.413Z,12.03
2023-02-09T17:30:45.215Z,14.13
2023-02-09T17:33:19.691Z,15.43
2023-02-09T17:36:22.261Z,12.70
2023-02-09T17:38:37.430Z,14.73
2023-02-09T17:41:13.968Z,13.13
2023-02-09T17:43:41.825Z,11.57
2023-02-09T17:46:11.397Z,10.87
2023-02-09T17:48:39.463Z,10.17
2023-02-09T17:51:09.615Z,8.60
2023-02-09T17:53:38.061Z,8.73
2023-02-09T17:56:08.636Z,9.67
2023-02-09T17:58:36.476Z,8.03
2023-02-09T18:01:14.072Z,9.60
2023-02-09T18:03:41.903Z,8.37
2023-02-09T18:06:11.458Z,7.37
2023-02-09T18:08:39.283Z,8.00
2023-02-09T18:11:14.559Z,8.20
2023-02-09T18:13:42.614Z,8.50
2023-02-09T18:16:13.402Z,8.60
2023-02-09T18:18:42.965Z,8.50
2023-02-09T18:21:14.628Z,8.60
2023-02-09T18:23:42.762Z,8.30
2023-02-09T18:26:12.038Z,8.07
2023-02-09T18:28:39.900Z,8.53
2023-02-09T18:31:08.293Z,8.27
2023-02-09T18:33:38.134Z,9.37
2023-02-09T18:36:07.555Z,8.10
2023-02-09T18:38:36.172Z,7.90
2023-02-09T18:41:04.029Z,6.87
2023-02-09T18:43:33.181Z,8.47
2023-02-09T18:46:01.356Z,9.00
2023-02-09T18:48:29.206Z,9.73
2023-02-09T18:50:57.090Z,8.20
2023-02-09T18:53:24.919Z,8.77
2023-02-09T18:55:53.720Z,9.03
2023-02-09T18:58:21.701Z,6.77
2023-02-09T19:00:50.885Z,7.90
2023-02-09T19:03:20.063Z,9.40
2023-02-09T19:05:48.872Z,9.03
2023-02-09T19:08:17.150Z,9.00
2023-02-09T19:10:45.675Z,9.23
2023-02-09T19:13:13.509Z,8.50
2023-02-09T19:15:41.440Z,9.33
2023-02-09T19:18:11.107Z,7.73
2023-02-09T19:20:39.539Z,8.87
2023-02-09T19:23:08.474Z,11.40
2023-02-09T19:25:37.270Z,15.27
2023-02-09T19:28:05.332Z,10.60
2023-02-09T19:30:33.279Z,10.13
2023-02-09T19:33:02.029Z,11.03
2023-02-09T19:35:31.910Z,11.60
2023-02-09T19:38:00.169Z,9.47
2023-02-09T19:40:35.525Z,10.43
2023-02-09T19:43:04.374Z,10.20
2023-02-09T19:45:36.479Z,9.47
2023-02-09T19:48:05.169Z,10.70
2023-02-09T19:50:34.706Z,9.17
2023-02-09T19:53:02.811Z,9.60
2023-02-09T19:55:30.685Z,9.90
2023-02-09T19:57:59.192Z,10.33
2023-02-09T20:00:27.260Z,9.23
2023-02-09T20:02:55.203Z,9.00
2023-02-09T20:05:23.066Z,10.10
2023-02-09T20:07:53.674Z,9.47
2023-02-09T20:10:23.733Z,12.03
2023-02-09T20:12:51.697Z,8.10
2023-02-09T20:15:19.769Z,9.40
2023-02-09T20:20:20.854Z,9.57
2023-02-09T20:22:50.309Z,10.60
2023-02-09T20:25:19.802Z,9.63
2023-02-09T20:27:49.679Z,11.70
2023-02-09T20:30:17.965Z,12.73
2023-02-09T20:32:45.815Z,9.80
2023-02-09T20:35:13.694Z,10.67
2023-02-09T20:37:41.559Z,10.83
2023-02-09T20:40:11.305Z,11.00
2023-02-09T20:42:58.276Z,9.77
2023-02-09T20:45:43.810Z,9.50
2023-02-09T20:48:11.763Z,10.40
2023-02-09T20:50:40.825Z,11.67
2023-02-09T20:53:08.649Z,11.00
2023-02-09T20:55:36.460Z,12.60
2023-02-09T20:58:05.684Z,10.70
2023-02-09T21:00:33.527Z,10.27
2023-02-09T21:03:01.404Z,11.60
2023-02-09T21:05:29.200Z,10.20
2023-02-09T21:07:57.323Z,8.73
2023-02-09T21:10:25.124Z,10.17
2023-02-09T21:12:52.952Z,10.40
2023-02-09T21:15:22.099Z,9.57
2023-02-09T21:17:51.626Z,10.80
2023-02-09T21:20:19.684Z,11.67
2023-02-09T21:22:48.282Z,10.90
2023-02-09T21:25:16.169Z,10.53
2023-02-09T21:27:44.008Z,9.63
2023-02-09T21:30:13.306Z,11.43
2023-02-09T21:32:42.494Z,11.50
2023-02-09T21:35:10.933Z,10.90
2023-02-09T21:37:39.328Z,11.70
2023-02-09T21:40:07.805Z,10.97
2023-02-09T21:42:37.064Z,10.70
2023-02-09T21:45:06.687Z,11.43
2023-02-09T21:47:37.603Z,11.10
2023-02-09T21:50:08.824Z,11.07
2023-02-09T21:52:36.854Z,10.47
2023-02-09T21:55:05.578Z,10.97
2023-02-09T21:57:33.443Z,11.77
2023-02-09T22:00:05.282Z,11.30
2023-02-09T22:02:33.210Z,12.10
2023-02-09T22:05:01.153Z,12.40
2023-02-09T22:07:30.340Z,10.30
2023-02-09T22:09:58.191Z,11.40
2023-02-09T22:12:26.021Z,12.70
2023-02-09T22:14:53.903Z,12.67
2023-02-09T22:17:21.834Z,11.20
2023-02-09T22:19:49.711Z,12.47
2023-02-09T22:22:17.538Z,11.23
2023-02-09T22:24:46.700Z,10.93
2023-02-09T22:27:14.545Z,10.00
2023-02-09T22:29:43.416Z,9.80
2023-02-09T22:32:11.376Z,15.20
2023-02-09T22:34:39.335Z,13.70
2023-02-09T22:37:07.173Z,13.23
2023-02-09T22:39:35.123Z,11.20
2023-02-09T22:42:04.431Z,13.97
2023-02-09T22:44:33.410Z,11.30
2023-02-09T22:47:01.284Z,11.00
2023-02-09T22:49:29.137Z,11.20
2023-02-09T22:51:56.960Z,11.50
2023-02-09T22:54:24.775Z,11.32
2023-02-09T22:56:52.838Z,13.52
2023-02-09T22:59:22.079Z,12.67
2023-02-09T23:01:49.914Z,11.43
2023-02-09T23:04:17.882Z,12.63
2023-02-09T23:06:46.404Z,11.47
2023-02-09T23:09:15.206Z,10.10
2023-02-09T23:11:44.265Z,12.70
2023-02-09T23:14:12.614Z,13.53
2023-02-09T23:16:43.188Z,11.43
2023-02-09T23:19:13.581Z,11.40
2023-02-09T23:21:43.945Z,10.67
2023-02-09T23:24:13.005Z,11.57
2023-02-09T23:26:41.324Z,13.23
2023-02-09T23:29:11.165Z,13.30
2023-02-09T23:31:40.784Z,11.37
2023-02-09T23:34:08.720Z,10.03
2023-02-09T23:36:36.585Z,13.30
2023-02-09T23:39:06.864Z,11.20
2023-02-09T23:41:35.575Z,11.67
2023-02-09T23:44:03.976Z,11.03
2023-02-09T23:46:31.928Z,12.35
2023-02-09T23:49:01.404Z,12.60
2023-02-09T23:51:31.988Z,11.20
2023-02-09T23:54:01.312Z,12.17
2023-02-09T23:56:31.793Z,12.50
2023-02-09T23:58:59.691Z,11.98
